Portada
METAR-TAF:

METAR-TAF

Aeroports :

Tabuk, Aràbia Saudita

latitud: 28-22N, longitud: 036-36E, altitud: 778 m

Observació

L'informe es va fer fa 40 minuts, a les 14:00 UTC
Vent 6 kt del Nord
Temperatura 20°C
Humitat 40%
Pressió 1016 hPa
Visibilitat 10 km o més
sense núvols per sota de 1500 mi sense presència de cumulonimbus.

METAR: OETB 061400Z 36006KT CAVOK 20/06 Q1016 NOSIG

Hora: 17:40 (14:40 UTC)

Pronòstic

L'informe es va fer fa 3 hores i 40 minuts, a les 11:00 UTC
Pronòstic vàlid del 06 a les 12 UTC al 07 a les 18 UTC
Vent 8 kt del Nord/Nord-Est
Visibilitat 10 km o més
Escasses núvols a una alçada de 4000 ft
Evolucionant progressivament
l' 06 a les 20 UTC al 06 a les 22 UTC
Vent 3 kt amb direcció variable
Visibilitat: 7000 m
Núvols disperses a una alçada de 3000 ft
Evolucionant progressivament
l' 07 a les 08 UTC al 07 a les 10 UTC
Vent 8 kt del Sud/Sud-Est

TAF: OETB 061100Z 0612/0718 03008KT 9999 FEW040 BECMG 0620/0622 VRB03KT 7000 SCT030 BECMG 0708/0710 16008KT

Observacions i pronòstics meteorològics de més de 4000 aeroports (METAR i TAF).

Les estacions disponibles són els punts grocs i vermells al mapa.

Posi el ratolí al punt desitjat per veure el nom de l'estació.

Feu clic per veure les observacions i els pronòstics meteorològics.

Per canviar el mapa: feu clic els botons verds amb una creu de color negre per apropar; al botó verd amb un guió per allunyar la imatge; o en les fletxes verdes per a mapes adjacents.


METAR-TAF: